createdAt,value
2023-04-21T00:02:16.059Z,96045.94
2023-04-21T00:04:45.805Z,96041.69
2023-04-21T00:07:14.720Z,96043.94
2023-04-21T00:09:42.600Z,96031.13
2023-04-21T00:12:10.548Z,96038.19
2023-04-21T00:14:39.928Z,96026.81
2023-04-21T00:17:09.072Z,96023.56
2023-04-21T00:19:36.863Z,96029.06
2023-04-21T00:22:04.794Z,96013.81
2023-04-21T00:24:32.516Z,96019.31
2023-04-21T00:27:00.219Z,96008.13
2023-04-21T00:29:27.939Z,96011.38
2023-04-21T00:31:56.036Z,96011.75
2023-04-21T00:34:25.309Z,96005.00
2023-04-21T00:36:53.029Z,96010.88
2023-04-21T00:39:20.997Z,96000.63
2023-04-21T00:41:48.768Z,95993.22
2023-04-21T00:44:16.548Z,95983.69
2023-04-21T00:46:44.441Z,95990.78
2023-04-21T00:49:13.296Z,95989.69
2023-04-21T00:51:42.534Z,95993.13
2023-04-21T00:54:13.034Z,95974.63
2023-04-21T00:56:40.864Z,95991.16
2023-04-21T00:59:08.751Z,96001.44
2023-04-21T01:01:37.213Z,95992.69
2023-04-21T01:04:06.392Z,96017.13
2023-04-21T01:06:34.880Z,96016.94
2023-04-21T01:09:04.696Z,96015.91
2023-04-21T01:11:32.540Z,96014.06
2023-04-21T01:14:00.296Z,96024.47
2023-04-21T01:16:29.559Z,96012.22
2023-04-21T01:18:57.877Z,96011.44
2023-04-21T01:21:26.990Z,96014.25
2023-04-21T01:23:56.242Z,96024.44
2023-04-21T01:26:24.233Z,96012.44
2023-04-21T01:28:52.061Z,96016.69
2023-04-21T01:31:21.162Z,96004.50
2023-04-21T01:33:48.974Z,96016.31
2023-04-21T01:36:17.061Z,96017.13
2023-04-21T01:38:44.906Z,96013.03
2023-04-21T01:41:14.159Z,96022.63
2023-04-21T01:43:42.062Z,96019.16
2023-04-21T01:46:10.545Z,96011.22
2023-04-21T01:48:38.861Z,96007.53
2023-04-21T01:51:07.226Z,96008.16
2023-04-21T01:53:35.126Z,96000.44
2023-04-21T01:56:02.961Z,96007.72
2023-04-21T01:58:32.433Z,96003.66
2023-04-21T02:01:00.186Z,96005.47
2023-04-21T02:03:28.134Z,96008.97
2023-04-21T02:05:56.046Z,96013.81
2023-04-21T02:08:24.139Z,96028.91
2023-04-21T02:10:51.983Z,96025.03
2023-04-21T02:13:20.129Z,96026.84
2023-04-21T02:15:51.558Z,96030.53
2023-04-21T02:18:22.980Z,96039.09
2023-04-21T02:20:50.716Z,96044.78
2023-04-21T02:23:18.452Z,96039.91
2023-04-21T02:25:46.272Z,96025.44
2023-04-21T02:28:14.060Z,96032.16
2023-04-21T02:30:42.669Z,96024.03
2023-04-21T02:33:11.792Z,96023.19
2023-04-21T02:35:39.440Z,96018.56
2023-04-21T02:38:08.940Z,96025.47
2023-04-21T02:40:36.733Z,96021.38
2023-04-21T02:43:04.519Z,96006.91
2023-04-21T02:45:32.360Z,95997.94
2023-04-21T02:48:00.338Z,95994.25
2023-04-21T02:50:29.563Z,96003.81
2023-04-21T02:52:57.306Z,96005.28
2023-04-21T02:55:26.946Z,96002.84
2023-04-21T02:57:54.777Z,96000.00
2023-04-21T03:00:22.542Z,96010.97
2023-04-21T03:02:50.497Z,96007.72
2023-04-21T03:05:19.011Z,96013.44
2023-04-21T03:07:48.139Z,95993.66
2023-04-21T03:10:15.837Z,95998.31
2023-04-21T03:12:43.701Z,95982.06
2023-04-21T03:15:12.784Z,96000.97
2023-04-21T03:17:40.787Z,96007.69
2023-04-21T03:20:09.235Z,96002.41
2023-04-21T03:22:37.415Z,96005.69
2023-04-21T03:25:07.540Z,96000.13
2023-04-21T03:27:36.379Z,95996.47
2023-04-21T03:30:04.497Z,95999.09
2023-04-21T03:32:32.202Z,95997.09
2023-04-21T03:35:00.013Z,95997.94
2023-04-21T03:37:27.740Z,95996.91
2023-04-21T03:39:55.850Z,95989.16
2023-04-21T03:42:26.218Z,95984.44
2023-04-21T03:44:53.949Z,95972.22
2023-04-21T03:47:21.906Z,95985.66
2023-04-21T03:49:49.712Z,95980.19
2023-04-21T03:52:17.478Z,95977.97
2023-04-21T03:54:45.450Z,95985.72
2023-04-21T03:57:13.170Z,95990.00
2023-04-21T03:59:42.679Z,95979.00
2023-04-21T04:02:10.649Z,95986.50
2023-04-21T04:04:38.989Z,95990.56
2023-04-21T04:07:08.818Z,95985.69
2023-04-21T04:09:36.611Z,95987.09
2023-04-21T04:12:04.449Z,95985.06
2023-04-21T04:14:32.266Z,95986.88
2023-04-21T04:17:01.358Z,95977.91
2023-04-21T04:19:32.585Z,95967.38
2023-04-21T04:22:01.181Z,95971.78
2023-04-21T04:24:29.702Z,95971.97
2023-04-21T04:26:57.956Z,95968.50
2023-04-21T04:29:25.693Z,95979.53
2023-04-21T04:31:53.855Z,95982.75
2023-04-21T04:34:23.663Z,95973.63
2023-04-21T04:36:51.606Z,95976.69
2023-04-21T04:39:19.562Z,95989.69
2023-04-21T04:41:48.648Z,95983.22
2023-04-21T04:44:18.216Z,95985.59
2023-04-21T04:46:46.544Z,95980.72
2023-04-21T04:49:15.455Z,95986.41
2023-04-21T04:51:44.685Z,95997.00
2023-04-21T04:54:12.508Z,95989.25
2023-04-21T04:56:40.780Z,95991.53
2023-04-21T04:59:08.490Z,95986.44
2023-04-21T05:01:38.130Z,95994.56
2023-04-21T05:04:06.203Z,95990.69
2023-04-21T05:06:34.064Z,95980.25
2023-04-21T05:09:04.858Z,95996.94
2023-04-21T05:11:32.686Z,95997.78
2023-04-21T05:14:00.525Z,95995.72
2023-04-21T05:16:28.302Z,96000.19
2023-04-21T05:18:56.081Z,96000.19
2023-04-21T05:21:25.709Z,95994.09
2023-04-21T05:23:53.416Z,96010.13
2023-04-21T05:26:22.686Z,96004.63
2023-04-21T05:28:51.076Z,96017.53
2023-04-21T05:31:18.863Z,96034.16
2023-04-21T05:33:46.825Z,96028.25
2023-04-21T05:36:14.618Z,96028.72
2023-04-21T05:38:42.489Z,96013.13
2023-04-21T05:41:10.237Z,96011.59
2023-04-21T05:43:39.802Z,96017.06
2023-04-21T05:46:10.901Z,96012.97
2023-04-21T05:48:38.680Z,96014.16
2023-04-21T05:51:10.587Z,96021.19
2023-04-21T05:53:38.508Z,96012.41
2023-04-21T05:56:08.121Z,95991.97
2023-04-21T05:58:35.933Z,96008.31
2023-04-21T06:01:06.240Z,96006.16
2023-04-21T06:03:35.177Z,96004.59
2023-04-21T06:06:04.897Z,96006.38
2023-04-21T06:08:32.941Z,96010.69
2023-04-21T06:11:00.927Z,96006.63
2023-04-21T06:13:28.744Z,96008.97
2023-04-21T06:15:56.894Z,96012.03
2023-04-21T06:18:28.041Z,96007.41
2023-04-21T06:20:57.067Z,95997.84
2023-04-21T06:23:24.813Z,96004.28
2023-04-21T06:26:01.860Z,96009.50
2023-04-21T06:28:29.661Z,96007.34
2023-04-21T06:30:57.343Z,96001.88
2023-04-21T06:33:26.867Z,96003.66
2023-04-21T06:35:55.172Z,95994.69
2023-04-21T06:38:23.783Z,95983.50
2023-04-21T06:40:52.109Z,95992.09
2023-04-21T06:43:19.899Z,95976.44
2023-04-21T06:45:47.633Z,95972.97
2023-04-21T06:48:15.471Z,95976.13
2023-04-21T06:50:46.673Z,95984.34
2023-04-21T06:53:14.886Z,95994.47
2023-04-21T06:55:43.207Z,95999.50
2023-04-21T06:58:11.313Z,95991.34
2023-04-21T07:00:39.318Z,95994.75
2023-04-21T07:03:07.480Z,95983.91
2023-04-21T07:05:35.276Z,96000.06
2023-04-21T07:08:04.458Z,95989.59
2023-04-21T07:10:32.244Z,95985.25
2023-04-21T07:13:00.063Z,95976.09
2023-04-21T07:15:27.863Z,95989.59
2023-04-21T07:17:55.655Z,95989.44
2023-04-21T07:20:23.554Z,95984.13
2023-04-21T07:22:51.343Z,95985.91
2023-04-21T07:25:20.607Z,95975.00
2023-04-21T07:27:48.737Z,95975.00
2023-04-21T07:30:16.845Z,95962.63
2023-04-21T07:32:44.631Z,95971.16
2023-04-21T07:35:12.339Z,95971.88
2023-04-21T07:37:40.555Z,95968.09
2023-04-21T07:40:09.738Z,95951.03
2023-04-21T07:42:39.136Z,95972.38
2023-04-21T07:45:07.668Z,95964.44
2023-04-21T07:47:35.810Z,95960.25
2023-04-21T07:50:03.864Z,95961.09
2023-04-21T07:52:31.701Z,95959.50
2023-04-21T07:54:59.350Z,95966.38
2023-04-21T07:57:27.108Z,95963.41
2023-04-21T07:59:56.226Z,95959.81
2023-04-21T08:02:24.427Z,95970.56
2023-04-21T08:04:52.349Z,95963.63
2023-04-21T08:07:20.101Z,95966.34
2023-04-21T08:09:48.262Z,95961.59
2023-04-21T08:12:16.289Z,95961.91
2023-04-21T08:14:44.188Z,95953.06
2023-04-21T08:17:13.387Z,95960.47
2023-04-21T08:19:41.142Z,95949.25
2023-04-21T08:22:08.998Z,95944.16
2023-04-21T08:24:36.740Z,95933.41
2023-04-21T08:27:04.735Z,95949.19
2023-04-21T08:29:32.495Z,95936.72
2023-04-21T08:32:00.425Z,95938.84
2023-04-21T08:34:29.734Z,95942.06
2023-04-21T08:36:57.629Z,95940.50
2023-04-21T08:39:25.533Z,95941.78
2023-04-21T08:41:53.690Z,95948.91
2023-04-21T08:44:22.223Z,95955.78
2023-04-21T08:46:51.459Z,95943.19
2023-04-21T08:49:22.050Z,95933.22
2023-04-21T08:51:51.756Z,95938.06
2023-04-21T08:54:19.668Z,95949.16
2023-04-21T08:56:49.195Z,95946.22
2023-04-21T08:59:16.993Z,95937.63
2023-04-21T09:02:10.722Z,95938.63
2023-04-21T09:04:42.278Z,95934.53
2023-04-21T09:07:12.914Z,95925.91
2023-04-21T09:09:54.715Z,95938.56
2023-04-21T09:12:22.786Z,95946.22
2023-04-21T09:14:51.351Z,95926.19
2023-04-21T09:17:22.755Z,95943.25
2023-04-21T09:19:50.990Z,95937.28
2023-04-21T09:22:20.152Z,95937.88
2023-04-21T09:24:48.361Z,95924.66
2023-04-21T09:27:17.386Z,95928.63
2023-04-21T09:29:49.252Z,95922.78
2023-04-21T09:32:20.106Z,95928.91
2023-04-21T09:34:48.404Z,95929.22
2023-04-21T09:37:18.813Z,95905.88
2023-04-21T09:40:02.898Z,95919.13
2023-04-21T09:42:35.480Z,95915.47
2023-04-21T09:47:40.991Z,95922.22
2023-04-21T09:50:12.528Z,95926.13
2023-04-21T09:52:41.168Z,95919.66
2023-04-21T09:55:13.861Z,95930.75
2023-04-21T09:57:44.836Z,95931.81
2023-04-21T10:00:14.243Z,95928.78
2023-04-21T10:02:45.399Z,95924.00
2023-04-21T10:05:13.576Z,95922.16
2023-04-21T10:07:41.751Z,95928.94
2023-04-21T10:10:20.192Z,95925.38
2023-04-21T10:12:48.216Z,95917.06
2023-04-21T10:15:31.551Z,95918.50
2023-04-21T10:18:18.095Z,95924.84
2023-04-21T10:20:56.461Z,95917.84
2023-04-21T10:23:33.042Z,95921.22
2023-04-21T10:26:11.114Z,95910.72
2023-04-21T10:28:47.922Z,95913.44
2023-04-21T10:31:24.112Z,95892.44
2023-04-21T10:34:18.385Z,95881.81
2023-04-21T10:37:16.276Z,95890.78
2023-04-21T10:39:55.914Z,95874.81
2023-04-21T10:42:36.898Z,95871.75
2023-04-21T10:45:11.030Z,95868.88
2023-04-21T10:47:44.523Z,95866.91
2023-04-21T10:50:18.276Z,95878.59
2023-04-21T10:52:48.141Z,95874.97
2023-04-21T10:55:17.038Z,95873.94
2023-04-21T10:57:46.644Z,95876.03
2023-04-21T11:00:19.808Z,95881.91
2023-04-21T11:02:56.215Z,95881.09
2023-04-21T11:05:36.415Z,95886.09
2023-04-21T11:08:08.676Z,95888.66
2023-04-21T11:10:51.852Z,95886.81
2023-04-21T11:13:23.880Z,95882.47
2023-04-21T11:16:02.986Z,95879.59
2023-04-21T11:18:44.868Z,95873.78
2023-04-21T11:21:22.584Z,95862.31
2023-04-21T11:23:52.183Z,95861.38
2023-04-21T11:26:30.575Z,95861.38
2023-04-21T11:29:01.553Z,95861.81
2023-04-21T11:31:30.692Z,95865.38
2023-04-21T11:33:59.960Z,95861.63
2023-04-21T11:36:29.268Z,95874.81
2023-04-21T11:38:57.028Z,95869.88
2023-04-21T11:41:25.637Z,95879.47
2023-04-21T11:43:53.829Z,95885.88
2023-04-21T11:46:27.322Z,95884.75
2023-04-21T11:49:02.614Z,95884.38
2023-04-21T11:51:34.890Z,95888.50
2023-04-21T11:54:02.737Z,95877.75
2023-04-21T11:56:30.481Z,95881.09
2023-04-21T11:58:58.483Z,95888.72
2023-04-21T12:01:28.008Z,95886.97
2023-04-21T12:03:57.004Z,95899.16
2023-04-21T12:06:26.968Z,95908.28
2023-04-21T12:09:01.043Z,95907.75
2023-04-21T12:11:29.673Z,95913.66
2023-04-21T12:13:58.560Z,95920.53
2023-04-21T12:16:28.638Z,95919.81
2023-04-21T12:18:57.568Z,95923.53
2023-04-21T12:21:28.744Z,95918.34
2023-04-21T12:23:56.689Z,95920.75
2023-04-21T12:26:24.913Z,95928.56
2023-04-21T12:28:53.065Z,95927.69
2023-04-21T12:31:20.926Z,95938.13
2023-04-21T12:33:50.214Z,95938.94
2023-04-21T12:36:18.376Z,95942.22
2023-04-21T12:38:46.233Z,95953.81
2023-04-21T12:41:14.097Z,95941.84
2023-04-21T12:43:41.846Z,95935.53
2023-04-21T12:46:09.988Z,95940.75
2023-04-21T12:48:37.886Z,95929.03
2023-04-21T12:51:07.293Z,95931.28
2023-04-21T12:53:36.806Z,95916.53
2023-04-21T12:56:05.771Z,95919.94
2023-04-21T12:58:33.729Z,95905.16
2023-04-21T13:01:01.675Z,95911.13
2023-04-21T13:03:29.784Z,95911.41
2023-04-21T13:05:58.138Z,95892.03
2023-04-21T13:08:27.645Z,95900.09
2023-04-21T13:10:55.566Z,95893.75
2023-04-21T13:13:23.371Z,95900.31
2023-04-21T13:15:51.194Z,95907.94
2023-04-21T13:18:19.195Z,95923.38
2023-04-21T13:20:47.023Z,95925.44
2023-04-21T13:23:16.204Z,95932.75
2023-04-21T13:25:46.419Z,95938.47
2023-04-21T13:28:15.215Z,95937.66
2023-04-21T13:30:43.116Z,95941.69
2023-04-21T13:33:11.419Z,95947.56
2023-04-21T13:35:39.549Z,95957.56
2023-04-21T13:38:07.346Z,95951.06
2023-04-21T13:40:35.275Z,95941.31
2023-04-21T13:43:04.829Z,95938.66
2023-04-21T13:45:32.833Z,95944.63
2023-04-21T13:48:00.734Z,95934.97
2023-04-21T13:50:28.558Z,95919.31
2023-04-21T13:52:56.323Z,95920.97
2023-04-21T13:55:24.127Z,95916.69
2023-04-21T13:57:52.426Z,95895.09
2023-04-21T14:00:22.068Z,95871.88
2023-04-21T14:02:50.358Z,95840.91
2023-04-21T14:05:18.770Z,95850.63
2023-04-21T14:07:46.720Z,95830.84
2023-04-21T14:10:14.568Z,95838.09
2023-04-21T14:12:44.942Z,95828.31
2023-04-21T14:15:13.541Z,95833.44
2023-04-21T14:17:43.250Z,95840.94
2023-04-21T14:20:12.277Z,95858.22
2023-04-21T14:22:40.003Z,95862.72
2023-04-21T14:25:08.304Z,95839.44
2023-04-21T14:27:36.106Z,95841.63
2023-04-21T14:30:03.849Z,95848.47
2023-04-21T14:32:31.739Z,95846.72
2023-04-21T14:35:03.317Z,95856.16
2023-04-21T14:37:31.174Z,95848.94
2023-04-21T14:39:58.916Z,95858.84
2023-04-21T14:42:26.785Z,95868.41
2023-04-21T14:44:54.556Z,95848.69
2023-04-21T14:47:22.982Z,95867.97
2023-04-21T14:49:54.680Z,95864.16
2023-04-21T14:52:26.737Z,95859.25
2023-04-21T14:54:54.625Z,95843.81
2023-04-21T14:57:22.730Z,95836.00
2023-04-21T14:59:51.580Z,95837.00
2023-04-21T15:02:20.714Z,95840.25
2023-04-21T15:04:48.981Z,95836.34
2023-04-21T15:07:22.861Z,95841.34
2023-04-21T15:09:53.562Z,95841.56
2023-04-21T15:12:21.846Z,95833.03
2023-04-21T15:14:49.714Z,95852.06
2023-04-21T15:17:17.657Z,95841.38
2023-04-21T15:19:45.450Z,95842.75
2023-04-21T15:22:15.143Z,95831.59
2023-04-21T15:24:43.231Z,95822.78
2023-04-21T15:27:12.463Z,95847.53
2023-04-21T15:29:40.387Z,95834.84
2023-04-21T15:32:08.260Z,95830.19
2023-04-21T15:34:36.079Z,95818.03
2023-04-21T15:37:03.894Z,95816.75
2023-04-21T15:39:31.726Z,95824.09
2023-04-21T15:42:00.203Z,95808.19
2023-04-21T15:44:29.469Z,95828.06
2023-04-21T15:46:57.334Z,95828.88
2023-04-21T15:49:26.234Z,95831.94
2023-04-21T15:51:54.299Z,95830.06
2023-04-21T15:54:22.668Z,95833.56
2023-04-21T15:56:50.591Z,95845.41
2023-04-21T15:59:18.372Z,95864.50
2023-04-21T16:01:47.757Z,95861.81
2023-04-21T16:04:16.512Z,95842.44
2023-04-21T16:06:44.502Z,95835.47
2023-04-21T16:09:12.287Z,95821.47
2023-04-21T16:11:40.488Z,95824.19
2023-04-21T16:14:09.359Z,95822.53
2023-04-21T16:16:37.796Z,95809.09
2023-04-21T16:19:07.262Z,95822.84
2023-04-21T16:21:35.475Z,95820.66
2023-04-21T16:24:05.315Z,95826.31
2023-04-21T16:26:35.745Z,95815.81
2023-04-21T16:29:03.590Z,95811.25
2023-04-21T16:31:31.499Z,95800.53
2023-04-21T16:34:00.462Z,95815.28
2023-04-21T16:36:31.191Z,95797.56
2023-04-21T16:38:59.086Z,95815.28
2023-04-21T16:41:26.984Z,95802.13
2023-04-21T16:43:54.732Z,95814.22
2023-04-21T16:46:22.716Z,95788.44
2023-04-21T16:48:50.625Z,95805.88
2023-04-21T16:51:18.553Z,95809.63
2023-04-21T16:53:47.699Z,95809.31
2023-04-21T16:56:15.634Z,95810.56
2023-04-21T16:58:43.490Z,95814.31
2023-04-21T17:01:11.348Z,95806.53
2023-04-21T17:03:39.302Z,95815.69
2023-04-21T17:06:10.757Z,95810.31
2023-04-21T17:08:38.932Z,95812.03
2023-04-21T17:11:08.119Z,95797.03
2023-04-21T17:13:39.154Z,95807.81
2023-04-21T17:16:08.047Z,95801.19
2023-04-21T17:18:36.658Z,95797.41
2023-04-21T17:21:06.281Z,95794.34
2023-04-21T17:23:34.133Z,95799.03
2023-04-21T17:26:05.147Z,95802.28
2023-04-21T17:28:34.397Z,95802.50
2023-04-21T17:31:14.585Z,95803.31
2023-04-21T17:33:43.543Z,95805.34
2023-04-21T17:36:11.514Z,95804.81
2023-04-21T17:38:39.763Z,95794.94
2023-04-21T17:41:08.461Z,95793.97
2023-04-21T17:43:37.830Z,95805.16
2023-04-21T17:46:07.331Z,95805.63
2023-04-21T17:48:35.400Z,95813.16
2023-04-21T17:51:04.004Z,95817.19
2023-04-21T17:53:32.101Z,95798.53
2023-04-21T17:56:00.065Z,95806.50
2023-04-21T17:58:27.900Z,95812.50
2023-04-21T18:00:57.099Z,95808.06
2023-04-21T18:03:25.157Z,95813.16
2023-04-21T18:05:53.104Z,95813.31
2023-04-21T18:08:21.134Z,95808.72
2023-04-21T18:10:49.301Z,95815.97
2023-04-21T18:13:17.162Z,95811.50
2023-04-21T18:15:44.948Z,95823.06
2023-04-21T18:18:14.122Z,95820.13
2023-04-21T18:20:41.915Z,95827.75
2023-04-21T18:23:09.899Z,95813.03
2023-04-21T18:25:42.722Z,95824.72
2023-04-21T18:28:12.682Z,95822.97
2023-04-21T18:30:41.121Z,95826.59
2023-04-21T18:33:09.527Z,95827.97
2023-04-21T18:35:38.815Z,95829.78
2023-04-21T18:38:08.258Z,95834.75
2023-04-21T18:40:37.426Z,95839.59
2023-04-21T18:43:05.520Z,95837.13
2023-04-21T18:45:33.950Z,95838.41
2023-04-21T18:48:01.873Z,95841.09
2023-04-21T18:50:30.231Z,95849.94
2023-04-21T18:52:59.574Z,95850.16
2023-04-21T18:55:27.438Z,95843.16
2023-04-21T18:57:55.221Z,95855.66
2023-04-21T19:00:23.092Z,95863.41
2023-04-21T19:02:51.354Z,95867.97
2023-04-21T19:05:19.468Z,95870.41
2023-04-21T19:07:47.444Z,95872.88
2023-04-21T19:10:16.713Z,95873.53
2023-04-21T19:12:44.719Z,95870.41
2023-04-21T19:15:12.965Z,95864.47
2023-04-21T19:17:41.385Z,95868.63
2023-04-21T19:20:10.350Z,95870.00
2023-04-21T19:22:38.241Z,95870.84
2023-04-21T19:25:08.478Z,95877.41
2023-04-21T19:27:37.744Z,95873.84
2023-04-21T19:30:06.599Z,95872.78
2023-04-21T19:32:34.501Z,95882.06
2023-04-21T19:35:02.427Z,95889.31
2023-04-21T19:37:31.736Z,95890.78
2023-04-21T19:40:01.222Z,95879.03
2023-04-21T19:42:29.676Z,95879.53
2023-04-21T19:44:58.884Z,95867.88
2023-04-21T19:47:26.916Z,95871.44
2023-04-21T19:49:54.952Z,95875.78
2023-04-21T19:52:22.731Z,95878.63
2023-04-21T19:54:50.500Z,95885.31
2023-04-21T19:57:18.291Z,95891.81
2023-04-21T19:59:46.078Z,95891.97
2023-04-21T20:02:15.376Z,95881.38
2023-04-21T20:04:43.718Z,95891.13
2023-04-21T20:07:12.136Z,95882.09
2023-04-21T20:09:40.114Z,95882.75
2023-04-21T20:12:08.492Z,95877.88
2023-04-21T20:14:36.235Z,95886.22
2023-04-21T20:17:04.393Z,95893.09
2023-04-21T20:19:35.595Z,95880.78
2023-04-21T20:22:03.650Z,95891.97
2023-04-21T20:24:31.598Z,95887.44
2023-04-21T20:26:59.365Z,95890.28
2023-04-21T20:29:27.253Z,95887.81
2023-04-21T20:31:55.125Z,95891.16
2023-04-21T20:34:23.105Z,95890.97
2023-04-21T20:36:54.483Z,95887.44
2023-04-21T20:39:22.300Z,95896.72
2023-04-21T20:42:00.971Z,95896.56
2023-04-21T20:44:31.697Z,95895.13
2023-04-21T20:46:59.865Z,95903.31
2023-04-21T20:49:28.362Z,95902.09
2023-04-21T20:52:01.125Z,95896.59
2023-04-21T20:54:29.321Z,95890.00
2023-04-21T20:56:57.217Z,95896.50
2023-04-21T20:59:24.952Z,95890.75
2023-04-21T21:01:52.731Z,95889.91
2023-04-21T21:04:20.816Z,95883.34
2023-04-21T21:06:48.716Z,95893.75
2023-04-21T21:09:19.117Z,95893.38
2023-04-21T21:11:46.966Z,95895.00
2023-04-21T21:14:14.826Z,95883.97
2023-04-21T21:16:42.805Z,95894.25
2023-04-21T21:19:12.562Z,95892.44
2023-04-21T21:21:40.419Z,95895.75
2023-04-21T21:24:08.422Z,95901.28
2023-04-21T21:26:37.520Z,95914.22
2023-04-21T21:29:05.273Z,95900.31
2023-04-21T21:31:33.098Z,95903.47
2023-04-21T21:34:01.235Z,95907.03
2023-04-21T21:36:29.040Z,95900.19
2023-04-21T21:38:56.855Z,95909.34
2023-04-21T21:41:24.771Z,95907.78
2023-04-21T21:43:53.888Z,95906.81
2023-04-21T21:46:22.193Z,95905.66
2023-04-21T21:48:50.329Z,95890.81
2023-04-21T21:51:18.138Z,95909.00
2023-04-21T21:53:45.970Z,95896.81
2023-04-21T21:56:13.864Z,95899.38
2023-04-21T21:58:41.721Z,95897.66
2023-04-21T22:01:11.573Z,95893.56
2023-04-21T22:03:39.605Z,95902.59
2023-04-21T22:06:07.855Z,95892.84
2023-04-21T22:08:35.568Z,95894.25
2023-04-21T22:11:05.812Z,95890.03
2023-04-21T22:13:33.628Z,95874.34
2023-04-21T22:16:02.372Z,95907.47
2023-04-21T22:18:31.556Z,95903.84
2023-04-21T22:20:59.704Z,95907.94
2023-04-21T22:23:27.525Z,95900.41
2023-04-21T22:25:55.401Z,95903.25
2023-04-21T22:28:23.345Z,95895.66
2023-04-21T22:30:51.364Z,95897.13
2023-04-21T22:33:20.014Z,95908.66
2023-04-21T22:35:49.121Z,95901.59
2023-04-21T22:38:16.915Z,95903.34
2023-04-21T22:40:44.782Z,95905.06
2023-04-21T22:43:12.699Z,95913.25
2023-04-21T22:45:40.581Z,95902.59
2023-04-21T22:48:09.475Z,95904.69
2023-04-21T22:50:37.236Z,95906.22
2023-04-21T22:53:06.922Z,95906.25
2023-04-21T22:55:34.725Z,95906.84
2023-04-21T22:58:02.817Z,95909.59
2023-04-21T23:00:30.669Z,95906.72
2023-04-21T23:02:58.705Z,95910.16
2023-04-21T23:05:26.675Z,95906.28
2023-04-21T23:07:55.522Z,95902.72
2023-04-21T23:10:25.226Z,95896.56
2023-04-21T23:12:53.121Z,95897.22
2023-04-21T23:15:21.410Z,95895.06
2023-04-21T23:17:49.385Z,95893.44
2023-04-21T23:20:17.353Z,95887.66
2023-04-21T23:22:45.277Z,95887.66
2023-04-21T23:25:13.135Z,95889.00
2023-04-21T23:27:42.449Z,95893.88
2023-04-21T23:30:11.244Z,95882.78
2023-04-21T23:32:39.083Z,95899.00
2023-04-21T23:35:08.276Z,95896.91
2023-04-21T23:37:36.100Z,95894.22
2023-04-21T23:40:08.948Z,95894.34
2023-04-21T23:42:36.819Z,95894.13
2023-04-21T23:45:07.048Z,95889.63
2023-04-21T23:47:35.165Z,95894.81
2023-04-21T23:50:02.942Z,95895.75
2023-04-21T23:52:31.403Z,95889.47
2023-04-21T23:54:59.398Z,95892.28
2023-04-21T23:57:27.114Z,95893.63
2023-04-21T23:59:54.996Z,95893.41
